BCT01 CYYR-CYYR

Flight info

Callsign BCT01
Flight time 0h 16m
Altitude 5000
Route VFR
Aircraft C17/H-SGHIRWXY/LB1

Departure

Time 2026-05-03 22:09
Airport Goose Bay Airport (CYYR)

Arrival

Time 2026-05-03 22:25
Airport Goose Bay Airport (CYYR)
Time Latitude Longitude Altitude Speed Heading
2026-05-03 22:08 53.32135 -60.40657 721 ft 176 kts 53°
2026-05-03 22:09 53.32998 -60.39279 954 ft 179 kts 24°
2026-05-03 22:09 53.34223 -60.39549 943 ft 189 kts 327°
2026-05-03 22:09 53.34792 -60.41455 798 ft 189 kts 273°
2026-05-03 22:10 53.33255 -60.44747 848 ft 185 kts 221°
2026-05-03 22:10 53.32372 -60.46365 1003 ft 190 kts 228°
2026-05-03 22:10 53.31503 -60.48007 1043 ft 183 kts 227°
2026-05-03 22:10 53.30659 -60.49625 1139 ft 183 kts 226°
2026-05-03 22:11 53.29632 -60.50175 1098 ft 145 kts 160°
2026-05-03 22:11 53.29145 -60.48997 788 ft 121 kts 94°
2026-05-03 22:11 53.29224 -60.47704 597 ft 108 kts 68°
2026-05-03 22:11 53.29618 -60.46678 431 ft 101 kts 54°
2026-05-03 22:12 53.30010 -60.45717 328 ft 99 kts 56°
2026-05-03 22:12 53.30402 -60.44783 212 ft 100 kts 56°
2026-05-03 22:12 53.30794 -60.43835 160 ft 107 kts 56°
2026-05-03 22:12 53.31336 -60.42522 403 ft 147 kts 55°
2026-05-03 22:13 53.31931 -60.41143 535 ft 145 kts 55°
2026-05-03 22:13 53.32333 -60.39732 650 ft 128 kts 83°
2026-05-03 22:13 53.31998 -60.38469 681 ft 116 kts 130°
2026-05-03 22:13 53.31345 -60.37815 725 ft 115 kts 175°
2026-05-03 22:14 53.30893 -60.38895 424 ft 135 kts 281°
2026-05-03 22:14 53.31449 -60.40087 249 ft 128 kts 315°
2026-05-03 22:14 53.32006 -60.41090 162 ft 111 kts 319°
2026-05-03 22:14 53.32719 -60.42357 446 ft 181 kts 316°
2026-05-03 22:15 53.33434 -60.44009 714 ft 169 kts 289°
2026-05-03 22:15 53.33221 -60.45808 817 ft 154 kts 236°
2026-05-03 22:15 53.32538 -60.47057 932 ft 139 kts 226°
2026-05-03 22:15 53.31900 -60.48213 931 ft 133 kts 226°
2026-05-03 22:16 53.31261 -60.49342 977 ft 132 kts 225°
2026-05-03 22:16 53.30438 -60.49687 810 ft 128 kts 157°
2026-05-03 22:16 53.29857 -60.48676 682 ft 124 kts 110°
2026-05-03 22:16 53.29650 -60.47260 572 ft 125 kts 90°
2026-05-03 22:17 53.29930 -60.45933 406 ft 121 kts 56°
2026-05-03 22:17 53.30375 -60.44848 233 ft 105 kts 56°
2026-05-03 22:17 53.30752 -60.43942 158 ft 88 kts 55°
2026-05-03 22:17 53.31247 -60.42743 390 ft 153 kts 56°
2026-05-03 22:18 53.31868 -60.41269 468 ft 150 kts 55°
2026-05-03 22:18 53.32380 -60.39988 573 ft 112 kts 68°
2026-05-03 22:18 53.32137 -60.38934 587 ft 97 kts 129°
2026-05-03 22:18 53.31652 -60.38194 625 ft 90 kts 132°
2026-05-03 22:19 53.31086 -60.37924 603 ft 104 kts 202°
2026-05-03 22:19 53.30938 -60.39204 379 ft 135 kts 309°
2026-05-03 22:19 53.31524 -60.40181 263 ft 111 kts 308°
2026-05-03 22:19 53.32028 -60.41138 158 ft 111 kts 320°
2026-05-03 22:20 53.32674 -60.42264 358 ft 155 kts 317°
2026-05-03 22:20 53.33342 -60.43496 573 ft 129 kts 314°
2026-05-03 22:20 53.33426 -60.44836 652 ft 119 kts 241°
2026-05-03 22:20 53.32906 -60.45839 719 ft 113 kts 226°
2026-05-03 22:21 53.32365 -60.46830 808 ft 119 kts 227°
2026-05-03 22:21 53.31759 -60.47863 988 ft 130 kts 224°
2026-05-03 22:21 53.31112 -60.49014 1084 ft 143 kts 226°
2026-05-03 22:21 53.30228 -60.49516 1019 ft 142 kts 163°
2026-05-03 22:22 53.29557 -60.48393 863 ft 140 kts 112°
2026-05-03 22:22 53.29533 -60.46911 577 ft 121 kts 64°
2026-05-03 22:22 53.29977 -60.45817 362 ft 106 kts 56°
2026-05-03 22:22 53.30383 -60.44830 215 ft 102 kts 56°
2026-05-03 22:23 53.30776 -60.43880 158 ft 92 kts 55°
2026-05-03 22:23 53.31285 -60.42664 384 ft 159 kts 55°
2026-05-03 22:23 53.31924 -60.41135 631 ft 160 kts 56°
2026-05-03 22:23 53.32412 -60.39621 769 ft 137 kts 80°
2026-05-03 22:24 53.32066 -60.38328 767 ft 120 kts 134°
2026-05-03 22:24 53.31458 -60.37460 739 ft 111 kts 145°
2026-05-03 22:24 53.30788 -60.37889 562 ft 128 kts 246°
2026-05-03 22:24 53.30979 -60.39269 307 ft 128 kts 319°
2026-05-03 22:25 53.31564 -60.40318 212 ft 113 kts 318°
2026-05-03 22:25 53.32048 -60.41145 155 ft 70 kts 310°
2026-05-03 22:25 53.32269 -60.41556 154 ft 35 kts 312°
2026-05-03 22:25 53.32373 -60.41769 158 ft 18 kts 309°
2026-05-03 22:26 53.32449 -60.41913 156 ft 12 kts 304°
2026-05-03 22:26 53.32489 -60.41994 157 ft 4 kts 313°
2026-05-03 22:26 53.32499 -60.41993 157 ft 1 kts 21°
2026-05-03 22:26 53.32502 -60.41974 157 ft 2 kts 100°
2026-05-03 22:27 53.32461 -60.41899 157 ft 19 kts 133°
2026-05-03 22:27 53.32343 -60.41688 156 ft 23 kts 133°
2026-05-03 22:27 53.32242 -60.41505 154 ft 20 kts 133°
2026-05-03 22:27 53.32145 -60.41332 152 ft 21 kts 131°
2026-05-03 22:28 53.32053 -60.41158 155 ft 19 kts 134°
2026-05-03 22:28 53.31962 -60.40999 158 ft 18 kts 133°
2026-05-03 22:28 53.31874 -60.40841 157 ft 20 kts 132°
2026-05-03 22:28 53.31785 -60.40713 156 ft 9 kts 153°
2026-05-03 22:29 53.31706 -60.40687 152 ft 16 kts 169°
2026-05-03 22:29 53.31582 -60.40659 151 ft 17 kts 179°
2026-05-03 22:29 53.31475 -60.40658 152 ft 15 kts 167°
2026-05-03 22:29 53.31398 -60.40572 151 ft 11 kts 128°
2026-05-03 22:30 53.31354 -60.40477 151 ft 11 kts 130°
2026-05-03 22:30 53.31292 -60.40365 149 ft 15 kts 132°
2026-05-03 22:30 53.31215 -60.40218 145 ft 19 kts 132°
2026-05-03 22:30 53.31116 -60.40076 140 ft 14 kts 167°
2026-05-03 22:31 53.31036 -60.40160 139 ft 16 kts 223°
2026-05-03 22:31 53.30938 -60.40314 139 ft 23 kts 223°
2026-05-03 22:31 53.30838 -60.40470 139 ft 10 kts 220°
2026-05-03 22:31 53.30801 -60.40462 139 ft 7 kts 149°
2026-05-03 22:32 53.30777 -60.40408 140 ft 6 kts 106°
2026-05-03 22:32 53.30793 -60.40349 140 ft 5 kts 44°
2026-05-03 22:32 53.30796 -60.40344 139 ft 0 kts 42°